createdAt,value
2023-04-18T00:01:09.737Z,2.70
2023-04-18T00:03:40.953Z,2.47
2023-04-18T00:06:08.348Z,2.97
2023-04-18T00:08:35.548Z,2.70
2023-04-18T00:11:02.632Z,2.80
2023-04-18T00:13:29.948Z,2.50
2023-04-18T00:15:57.283Z,2.88
2023-04-18T00:18:26.592Z,2.80
2023-04-18T00:20:54.270Z,2.80
2023-04-18T00:23:22.324Z,2.72
2023-04-18T00:25:49.684Z,2.70
2023-04-18T00:28:16.774Z,2.70
2023-04-18T00:30:43.968Z,2.75
2023-04-18T00:33:11.069Z,2.83
2023-04-18T00:35:38.478Z,2.47
2023-04-18T00:38:05.633Z,2.67
2023-04-18T00:40:32.749Z,2.50
2023-04-18T00:43:00.019Z,2.65
2023-04-18T00:45:27.248Z,3.10
2023-04-18T00:47:56.338Z,2.78
2023-04-18T00:50:24.035Z,2.72
2023-04-18T00:52:52.126Z,2.70
2023-04-18T00:55:19.457Z,2.35
2023-04-18T00:57:46.748Z,2.60
2023-04-18T01:00:15.155Z,3.08
2023-04-18T01:02:42.418Z,2.70
2023-04-18T01:05:09.792Z,2.70
2023-04-18T01:07:40.694Z,3.10
2023-04-18T01:10:08.308Z,2.90
2023-04-18T01:12:37.262Z,2.97
2023-04-18T01:15:05.692Z,3.17
2023-04-18T01:17:34.626Z,3.05
2023-04-18T01:20:02.058Z,3.15
2023-04-18T01:22:29.680Z,2.80
2023-04-18T01:24:57.142Z,2.70
2023-04-18T01:27:24.281Z,2.60
2023-04-18T01:29:51.416Z,3.30
2023-04-18T01:32:20.426Z,2.63
2023-04-18T01:34:47.647Z,3.38
2023-04-18T01:37:14.860Z,2.80
2023-04-18T01:39:41.945Z,2.83
2023-04-18T01:42:09.094Z,3.30
2023-04-18T01:44:36.346Z,2.95
2023-04-18T01:47:03.622Z,3.00
2023-04-18T01:49:30.765Z,3.13
2023-04-18T01:51:57.899Z,2.65
2023-04-18T01:54:25.005Z,3.30
2023-04-18T01:56:52.099Z,3.30
2023-04-18T01:59:19.226Z,2.78
2023-04-18T02:01:46.651Z,3.35
2023-04-18T02:04:14.177Z,3.45
2023-04-18T02:06:41.557Z,3.10
2023-04-18T02:09:08.660Z,3.25
2023-04-18T02:11:35.791Z,3.08
2023-04-18T02:14:03.022Z,3.10
2023-04-18T02:16:30.419Z,2.65
2023-04-18T02:18:57.846Z,3.40
2023-04-18T02:21:25.011Z,3.45
2023-04-18T02:23:52.136Z,3.30
2023-04-18T02:26:19.276Z,3.30
2023-04-18T02:28:46.434Z,3.22
2023-04-18T02:31:15.160Z,3.80
2023-04-18T02:33:47.629Z,3.30
2023-04-18T02:36:14.747Z,3.40
2023-04-18T02:38:41.831Z,3.35
2023-04-18T02:41:09.008Z,3.20
2023-04-18T02:43:36.188Z,3.35
2023-04-18T02:46:03.547Z,3.58
2023-04-18T02:48:30.777Z,2.90
2023-04-18T02:51:03.323Z,3.35
2023-04-18T02:53:30.405Z,3.30
2023-04-18T02:55:57.747Z,3.30
2023-04-18T02:58:24.888Z,3.42
2023-04-18T03:00:53.836Z,3.30
2023-04-18T03:03:21.239Z,3.58
2023-04-18T03:05:48.427Z,3.63
2023-04-18T03:08:16.240Z,3.67
2023-04-18T03:10:43.428Z,3.58
2023-04-18T03:13:10.527Z,3.60
2023-04-18T03:15:38.057Z,3.38
2023-04-18T03:18:06.182Z,3.42
2023-04-18T03:20:33.358Z,3.70
2023-04-18T03:23:00.808Z,3.47
2023-04-18T03:25:27.936Z,3.58
2023-04-18T03:27:55.024Z,3.45
2023-04-18T03:30:22.235Z,3.40
2023-04-18T03:32:49.409Z,3.30
2023-04-18T03:35:16.592Z,3.78
2023-04-18T03:37:43.746Z,3.30
2023-04-18T03:40:11.530Z,3.65
2023-04-18T03:42:38.632Z,3.65
2023-04-18T03:45:05.905Z,3.30
2023-04-18T03:47:33.661Z,3.63
2023-04-18T03:50:00.800Z,3.40
2023-04-18T03:52:29.716Z,3.70
2023-04-18T03:54:57.027Z,3.97
2023-04-18T03:57:24.103Z,3.20
2023-04-18T03:59:51.257Z,3.33
2023-04-18T04:02:18.462Z,4.15
2023-04-18T04:04:45.704Z,3.20
2023-04-18T04:07:13.035Z,4.05
2023-04-18T04:09:40.178Z,4.50
2023-04-18T04:12:07.295Z,3.85
2023-04-18T04:14:34.392Z,3.72
2023-04-18T04:17:01.619Z,3.75
2023-04-18T04:19:28.768Z,3.58
2023-04-18T04:21:55.846Z,3.63
2023-04-18T04:24:22.986Z,3.83
2023-04-18T04:26:50.730Z,3.60
2023-04-18T04:29:18.952Z,3.70
2023-04-18T04:31:46.178Z,3.63
2023-04-18T04:34:13.671Z,3.90
2023-04-18T04:36:41.255Z,3.85
2023-04-18T04:39:08.708Z,3.38
2023-04-18T04:41:37.617Z,3.70
2023-04-18T04:44:04.805Z,4.13
2023-04-18T04:46:32.600Z,3.70
2023-04-18T04:48:59.661Z,4.45
2023-04-18T04:51:27.891Z,3.90
2023-04-18T04:53:55.037Z,3.42
2023-04-18T04:56:23.012Z,4.50
2023-04-18T04:58:50.491Z,4.20
2023-04-18T05:01:18.038Z,4.00
2023-04-18T05:03:45.388Z,4.05
2023-04-18T05:06:12.966Z,4.80
2023-04-18T05:08:40.211Z,4.22
2023-04-18T05:11:07.300Z,4.28
2023-04-18T05:13:34.412Z,4.18
2023-04-18T05:16:02.050Z,3.95
2023-04-18T05:18:29.184Z,4.20
2023-04-18T05:20:56.872Z,3.80
2023-04-18T05:23:24.034Z,3.97
2023-04-18T05:25:51.228Z,3.58
2023-04-18T05:28:18.311Z,4.13
2023-04-18T05:30:45.859Z,3.92
2023-04-18T05:33:13.008Z,4.05
2023-04-18T05:35:40.194Z,4.80
2023-04-18T05:38:07.362Z,4.65
2023-04-18T05:40:34.967Z,4.40
2023-04-18T05:43:02.073Z,4.38
2023-04-18T05:45:29.237Z,4.10
2023-04-18T05:47:56.471Z,4.47
2023-04-18T05:50:23.642Z,4.40
2023-04-18T05:52:51.012Z,4.68
2023-04-18T05:55:18.161Z,4.05
2023-04-18T05:57:45.239Z,4.38
2023-04-18T06:00:13.078Z,4.28
2023-04-18T06:02:40.356Z,4.05
2023-04-18T06:05:08.729Z,3.70
2023-04-18T06:07:36.126Z,4.18
2023-04-18T06:10:03.293Z,4.07
2023-04-18T06:12:30.648Z,4.70
2023-04-18T06:14:57.800Z,3.92
2023-04-18T06:17:24.901Z,4.40
2023-04-18T06:19:52.007Z,4.60
2023-04-18T06:22:19.138Z,4.30
2023-04-18T06:24:46.862Z,4.40
2023-04-18T06:27:27.858Z,4.60
2023-04-18T06:29:57.532Z,4.32
2023-04-18T06:32:24.759Z,4.88
2023-04-18T06:34:52.989Z,4.15
2023-04-18T06:37:20.319Z,4.43
2023-04-18T06:39:47.450Z,4.28
2023-04-18T06:42:14.548Z,4.63
2023-04-18T06:44:43.209Z,4.50
2023-04-18T06:47:10.762Z,4.32
2023-04-18T06:49:37.857Z,4.63
2023-04-18T06:52:05.072Z,4.63
2023-04-18T06:54:32.169Z,4.45
2023-04-18T06:56:59.740Z,4.20
2023-04-18T06:59:27.576Z,3.92
2023-04-18T07:01:54.827Z,4.85
2023-04-18T07:04:22.370Z,4.65
2023-04-18T07:06:49.665Z,7.40
2023-04-18T07:09:16.732Z,5.18
2023-04-18T07:11:43.898Z,4.03
2023-04-18T07:14:12.261Z,4.38
2023-04-18T07:16:39.785Z,4.07
2023-04-18T07:19:07.044Z,4.13
2023-04-18T07:21:34.198Z,4.15
2023-04-18T07:24:01.305Z,4.32
2023-04-18T07:26:29.148Z,3.65
2023-04-18T07:28:56.271Z,3.90
2023-04-18T07:31:25.771Z,3.60
2023-04-18T07:33:53.149Z,3.78
2023-04-18T07:36:20.260Z,3.90
2023-04-18T07:38:47.434Z,3.60
2023-04-18T07:41:14.516Z,3.80
2023-04-18T07:43:41.960Z,3.58
2023-04-18T07:46:09.162Z,3.90
2023-04-18T07:48:36.332Z,4.07
2023-04-18T07:51:04.557Z,4.00
2023-04-18T07:53:31.660Z,4.43
2023-04-18T07:55:58.724Z,4.40
2023-04-18T07:58:25.912Z,2.90
2023-04-18T08:00:53.038Z,3.70
2023-04-18T08:03:20.267Z,3.15
2023-04-18T08:05:47.926Z,3.47
2023-04-18T08:08:15.013Z,3.55
2023-04-18T08:10:42.088Z,3.65
2023-04-18T08:13:09.522Z,3.88
2023-04-18T08:15:36.695Z,4.40
2023-04-18T08:18:03.941Z,4.18
2023-04-18T08:20:31.209Z,3.90
2023-04-18T08:23:06.927Z,3.55
2023-04-18T08:25:36.953Z,4.28
2023-04-18T08:28:04.324Z,4.32
2023-04-18T08:30:31.652Z,3.50
2023-04-18T08:33:00.196Z,3.83
2023-04-18T08:35:27.508Z,3.63
2023-04-18T08:37:54.632Z,3.67
2023-04-18T08:40:21.912Z,4.38
2023-04-18T08:42:49.892Z,3.67
2023-04-18T08:45:18.685Z,3.60
2023-04-18T08:47:46.067Z,3.63
2023-04-18T08:50:13.205Z,3.40
2023-04-18T08:52:40.633Z,3.17
2023-04-18T08:55:09.439Z,3.60
2023-04-18T08:57:36.568Z,3.28
2023-04-18T09:00:10.355Z,3.20
2023-04-18T09:02:47.642Z,3.10
2023-04-18T09:05:16.770Z,3.58
2023-04-18T09:07:44.053Z,2.97
2023-04-18T09:10:12.458Z,3.58
2023-04-18T09:12:52.927Z,3.80
2023-04-18T09:15:23.823Z,3.75
2023-04-18T09:17:56.242Z,3.13
2023-04-18T09:20:30.680Z,3.50
2023-04-18T09:22:58.108Z,3.40
2023-04-18T09:25:46.285Z,3.38
2023-04-18T09:28:27.145Z,3.95
2023-04-18T09:30:54.931Z,3.35
2023-04-18T09:33:33.970Z,3.40
2023-04-18T09:36:19.955Z,3.97
2023-04-18T09:38:47.578Z,4.05
2023-04-18T09:41:18.480Z,4.43
2023-04-18T09:43:48.215Z,3.67
2023-04-18T09:46:17.572Z,3.50
2023-04-18T09:48:44.934Z,3.28
2023-04-18T09:51:15.174Z,3.60
2023-04-18T09:53:47.833Z,2.70
2023-04-18T09:56:25.725Z,3.40
2023-04-18T09:58:56.494Z,2.90
2023-04-18T10:01:27.302Z,3.28
2023-04-18T10:03:55.751Z,3.25
2023-04-18T10:06:22.966Z,2.83
2023-04-18T10:08:52.510Z,3.20
2023-04-18T10:11:20.296Z,2.90
2023-04-18T10:13:48.687Z,2.55
2023-04-18T10:16:16.956Z,2.63
2023-04-18T10:18:44.303Z,3.05
2023-04-18T10:21:12.301Z,2.10
2023-04-18T10:23:40.574Z,2.50
2023-04-18T10:26:08.959Z,2.75
2023-04-18T10:28:56.379Z,2.28
2023-04-18T10:31:24.230Z,2.83
2023-04-18T10:34:04.692Z,2.30
2023-04-18T10:37:03.635Z,3.10
2023-04-18T10:39:30.940Z,2.50
2023-04-18T10:41:58.017Z,2.63
2023-04-18T10:44:25.643Z,2.75
2023-04-18T10:46:52.953Z,2.75
2023-04-18T10:49:26.867Z,3.30
2023-04-18T10:51:58.430Z,2.38
2023-04-18T10:54:44.403Z,2.55
2023-04-18T10:57:13.160Z,2.78
2023-04-18T10:59:42.156Z,2.50
2023-04-18T11:02:30.042Z,2.20
2023-04-18T11:04:58.282Z,2.65
2023-04-18T11:07:35.296Z,2.60
2023-04-18T11:10:02.728Z,2.20
2023-04-18T11:12:31.714Z,2.15
2023-04-18T11:14:59.301Z,2.30
2023-04-18T11:17:27.575Z,2.20
2023-04-18T11:20:02.007Z,2.50
2023-04-18T11:22:29.726Z,1.95
2023-04-18T11:25:00.828Z,2.22
2023-04-18T11:27:29.960Z,2.45
2023-04-18T11:29:58.054Z,2.17
2023-04-18T11:32:25.392Z,2.78
2023-04-18T11:34:53.679Z,2.90
2023-04-18T11:37:20.845Z,3.05
2023-04-18T11:39:48.022Z,3.08
2023-04-18T11:42:15.217Z,3.03
2023-04-18T11:44:45.968Z,2.65
2023-04-18T11:47:46.354Z,3.83
2023-04-18T11:50:14.240Z,4.13
2023-04-18T11:52:42.612Z,4.13
2023-04-18T11:55:21.257Z,5.22
2023-04-18T11:57:58.260Z,6.38
2023-04-18T12:00:31.495Z,7.47
2023-04-18T12:03:02.067Z,7.93
2023-04-18T12:05:33.625Z,7.78
2023-04-18T12:08:30.325Z,6.85
2023-04-18T12:10:57.464Z,4.72
2023-04-18T12:13:26.168Z,4.85
2023-04-18T12:15:54.472Z,5.25
2023-04-18T12:18:21.703Z,6.30
2023-04-18T12:20:54.013Z,6.18
2023-04-18T12:23:35.424Z,6.05
2023-04-18T12:28:29.986Z,5.95
2023-04-18T12:30:57.240Z,5.85
2023-04-18T12:33:24.432Z,6.20
2023-04-18T12:35:52.725Z,6.30
2023-04-18T12:38:23.569Z,4.90
2023-04-18T12:40:51.398Z,5.43
2023-04-18T12:43:18.758Z,5.32
2023-04-18T12:45:46.701Z,5.28
2023-04-18T12:48:13.887Z,5.00
2023-04-18T12:50:41.153Z,4.45
2023-04-18T12:53:08.450Z,4.25
2023-04-18T12:55:35.960Z,5.82
2023-04-18T12:58:03.110Z,5.05
2023-04-18T13:00:32.015Z,4.75
2023-04-18T13:02:59.749Z,5.00
2023-04-18T13:05:31.706Z,5.10
2023-04-18T13:08:12.728Z,4.93
2023-04-18T13:10:43.058Z,4.95
2023-04-18T13:13:10.158Z,5.72
2023-04-18T13:15:37.294Z,5.75
2023-04-18T13:18:06.313Z,6.05
2023-04-18T13:20:34.185Z,6.13
2023-04-18T13:23:02.732Z,6.20
2023-04-18T13:25:29.872Z,4.90
2023-04-18T13:27:58.612Z,5.30
2023-04-18T13:30:26.074Z,6.18
2023-04-18T13:32:53.258Z,6.13
2023-04-18T13:35:20.572Z,6.78
2023-04-18T13:37:47.719Z,5.75
2023-04-18T13:40:15.648Z,6.57
2023-04-18T13:42:43.580Z,6.78
2023-04-18T13:45:11.033Z,5.72
2023-04-18T13:47:38.364Z,5.63
2023-04-18T13:50:05.782Z,5.18
2023-04-18T13:52:32.945Z,5.18
2023-04-18T13:55:00.064Z,5.00
2023-04-18T13:57:28.450Z,4.47
2023-04-18T13:59:55.552Z,4.35
2023-04-18T14:02:22.927Z,3.97
2023-04-18T14:04:52.029Z,3.58
2023-04-18T14:07:19.292Z,2.97
2023-04-18T14:09:48.136Z,3.30
2023-04-18T14:12:15.303Z,3.33
2023-04-18T14:14:42.812Z,3.20
2023-04-18T14:17:10.234Z,3.20
2023-04-18T14:19:37.389Z,2.78
2023-04-18T14:22:04.463Z,3.63
2023-04-18T14:24:31.559Z,2.60
2023-04-18T14:26:58.687Z,3.03
2023-04-18T14:29:25.775Z,2.30
2023-04-18T14:31:52.854Z,2.30
2023-04-18T14:34:20.000Z,2.45
2023-04-18T14:36:47.069Z,2.40
2023-04-18T14:39:14.329Z,2.60
2023-04-18T14:41:41.738Z,2.17
2023-04-18T14:44:08.897Z,1.90
2023-04-18T14:46:36.452Z,1.77
2023-04-18T14:49:03.624Z,1.88
2023-04-18T14:51:31.254Z,1.50
2023-04-18T14:53:58.342Z,1.75
2023-04-18T14:56:25.542Z,1.63
2023-04-18T14:58:52.643Z,1.80
2023-04-18T15:01:19.823Z,2.08
2023-04-18T15:03:47.362Z,1.58
2023-04-18T15:06:14.624Z,1.80
2023-04-18T15:08:41.899Z,1.58
2023-04-18T15:11:09.531Z,1.75
2023-04-18T15:13:37.056Z,1.63
2023-04-18T15:16:04.209Z,1.65
2023-04-18T15:18:31.359Z,2.00
2023-04-18T15:21:01.484Z,1.73
2023-04-18T15:23:28.645Z,1.80
2023-04-18T15:25:55.869Z,1.52
2023-04-18T15:28:23.122Z,1.65
2023-04-18T15:30:50.264Z,1.77
2023-04-18T15:33:19.104Z,1.77
2023-04-18T15:35:46.435Z,1.60
2023-04-18T15:38:13.790Z,2.05
2023-04-18T15:40:41.030Z,1.60
2023-04-18T15:43:08.155Z,1.90
2023-04-18T15:45:35.258Z,1.80
2023-04-18T15:48:02.466Z,1.67
2023-04-18T15:50:32.089Z,1.88
2023-04-18T15:53:00.654Z,2.13
2023-04-18T15:55:27.833Z,1.90
2023-04-18T15:57:55.809Z,1.58
2023-04-18T16:00:23.776Z,3.15
2023-04-18T16:02:51.333Z,1.95
2023-04-18T16:05:19.443Z,2.78
2023-04-18T16:07:46.506Z,2.28
2023-04-18T16:10:15.213Z,2.20
2023-04-18T16:12:42.466Z,1.98
2023-04-18T16:15:10.166Z,1.85
2023-04-18T16:17:37.757Z,1.98
2023-04-18T16:20:06.212Z,1.67
2023-04-18T16:22:33.548Z,1.90
2023-04-18T16:25:00.736Z,1.58
2023-04-18T16:27:28.256Z,2.20
2023-04-18T16:29:55.848Z,1.88
2023-04-18T16:32:23.074Z,1.70
2023-04-18T16:34:50.265Z,1.85
2023-04-18T16:37:17.395Z,1.50
2023-04-18T16:39:44.681Z,1.70
2023-04-18T16:42:13.353Z,1.90
2023-04-18T16:44:41.988Z,1.60
2023-04-18T16:47:09.343Z,1.90
2023-04-18T16:49:37.461Z,1.92
2023-04-18T16:52:04.648Z,1.83
2023-04-18T16:54:31.789Z,1.80
2023-04-18T16:56:58.956Z,1.90
2023-04-18T16:59:26.081Z,2.10
2023-04-18T17:01:53.332Z,2.00
2023-04-18T17:04:20.468Z,1.98
2023-04-18T17:06:47.613Z,2.17
2023-04-18T17:09:14.945Z,1.95
2023-04-18T17:11:42.326Z,2.03
2023-04-18T17:14:09.786Z,2.58
2023-04-18T17:16:40.482Z,1.70
2023-04-18T17:19:07.781Z,1.58
2023-04-18T17:21:35.259Z,1.92
2023-04-18T17:24:03.942Z,2.08
2023-04-18T17:26:31.419Z,2.10
2023-04-18T17:28:58.560Z,1.83
2023-04-18T17:31:25.781Z,2.20
2023-04-18T17:33:54.434Z,2.08
2023-04-18T17:36:21.643Z,1.95
2023-04-18T17:38:48.990Z,1.90
2023-04-18T17:41:16.770Z,2.13
2023-04-18T17:43:44.262Z,2.08
2023-04-18T17:46:11.778Z,1.95
2023-04-18T17:48:38.871Z,2.00
2023-04-18T17:51:06.084Z,2.00
2023-04-18T17:53:33.266Z,1.95
2023-04-18T17:56:00.493Z,1.95
2023-04-18T17:58:27.704Z,2.00
2023-04-18T18:00:54.933Z,2.15
2023-04-18T18:03:22.248Z,1.80
2023-04-18T18:05:50.575Z,2.00
2023-04-18T18:08:17.741Z,2.05
2023-04-18T18:10:46.940Z,1.48
2023-04-18T18:13:14.199Z,2.08
2023-04-18T18:15:41.325Z,1.90
2023-04-18T18:18:08.535Z,1.90
2023-04-18T18:20:35.691Z,2.05
2023-04-18T18:23:02.856Z,2.00
2023-04-18T18:25:30.344Z,2.65
2023-04-18T18:27:57.484Z,2.00
2023-04-18T18:30:24.669Z,1.83
2023-04-18T18:32:53.454Z,2.17
2023-04-18T18:35:20.740Z,2.00
2023-04-18T18:37:47.920Z,2.30
2023-04-18T18:40:15.333Z,2.20
2023-04-18T18:42:43.888Z,2.33
2023-04-18T18:45:11.064Z,1.90
2023-04-18T18:47:39.790Z,2.50
2023-04-18T18:50:07.700Z,2.28
2023-04-18T18:52:34.897Z,2.00
2023-04-18T18:55:03.086Z,2.22
2023-04-18T18:57:30.589Z,2.50
2023-04-18T18:59:57.779Z,2.78
2023-04-18T19:02:25.248Z,2.60
2023-04-18T19:04:52.749Z,2.40
2023-04-18T19:07:20.010Z,2.72
2023-04-18T19:09:47.912Z,2.38
2023-04-18T19:12:15.864Z,2.70
2023-04-18T19:14:43.069Z,2.63
2023-04-18T19:17:10.129Z,2.83
2023-04-18T19:19:37.255Z,2.60
2023-04-18T19:22:05.958Z,2.47
2023-04-18T19:24:34.819Z,2.63
2023-04-18T19:27:02.895Z,2.42
2023-04-18T19:29:32.434Z,2.67
2023-04-18T19:31:59.966Z,3.10
2023-04-18T19:34:27.130Z,2.75
2023-04-18T19:36:54.275Z,2.78
2023-04-18T19:39:21.362Z,2.83
2023-04-18T19:41:48.456Z,2.42
2023-04-18T19:44:15.800Z,2.70
2023-04-18T19:46:42.892Z,3.50
2023-04-18T19:49:09.981Z,2.65
2023-04-18T19:51:37.183Z,2.78
2023-04-18T19:54:04.721Z,2.78
2023-04-18T19:56:31.810Z,2.55
2023-04-18T19:58:58.958Z,2.75
2023-04-18T20:01:26.303Z,2.70
2023-04-18T20:03:54.939Z,2.72
2023-04-18T20:06:22.491Z,3.17
2023-04-18T20:08:49.574Z,2.45
2023-04-18T20:11:16.720Z,2.33
2023-04-18T20:13:43.908Z,2.47
2023-04-18T20:16:12.166Z,3.10
2023-04-18T20:18:40.865Z,2.70
2023-04-18T20:21:08.804Z,3.70
2023-04-18T20:23:36.771Z,2.65
2023-04-18T20:26:04.343Z,3.08
2023-04-18T20:28:32.236Z,2.97
2023-04-18T20:30:59.376Z,2.40
2023-04-18T20:33:26.582Z,2.50
2023-04-18T20:35:54.793Z,2.60
2023-04-18T20:38:25.944Z,2.85
2023-04-18T20:40:54.060Z,2.50
2023-04-18T20:43:21.442Z,2.92
2023-04-18T20:45:51.049Z,2.53
2023-04-18T20:48:18.575Z,2.40
2023-04-18T20:50:51.149Z,2.50
2023-04-18T20:53:21.789Z,3.28
2023-04-18T20:55:49.307Z,2.70
2023-04-18T20:58:16.834Z,2.78
2023-04-18T21:00:44.809Z,2.55
2023-04-18T21:03:14.909Z,1.98
2023-04-18T21:05:43.346Z,2.50
2023-04-18T21:08:11.056Z,2.33
2023-04-18T21:10:38.264Z,2.70
2023-04-18T21:13:05.636Z,3.38
2023-04-18T21:15:32.734Z,2.60
2023-04-18T21:17:59.904Z,2.47
2023-04-18T21:20:27.192Z,2.30
2023-04-18T21:22:54.271Z,2.65
2023-04-18T21:25:21.439Z,2.38
2023-04-18T21:27:50.677Z,2.75
2023-04-18T21:30:18.012Z,2.30
2023-04-18T21:32:45.863Z,2.30
2023-04-18T21:35:13.528Z,2.45
2023-04-18T21:37:40.598Z,2.53
2023-04-18T21:40:08.087Z,2.72
2023-04-18T21:42:35.728Z,2.75
2023-04-18T21:45:02.889Z,2.30
2023-04-18T21:47:30.061Z,2.78
2023-04-18T21:49:57.297Z,3.20
2023-04-18T21:52:24.585Z,2.72
2023-04-18T21:54:51.718Z,2.38
2023-04-18T21:57:18.872Z,2.80
2023-04-18T21:59:45.936Z,2.63
2023-04-18T22:02:13.080Z,2.80
2023-04-18T22:04:42.613Z,2.67
2023-04-18T22:07:10.040Z,3.08
2023-04-18T22:09:37.138Z,2.92
2023-04-18T22:12:04.374Z,2.72
2023-04-18T22:14:34.426Z,2.40
2023-04-18T22:17:04.844Z,2.65
2023-04-18T22:19:32.080Z,2.25
2023-04-18T22:21:59.366Z,2.97
2023-04-18T22:24:26.443Z,3.15
2023-04-18T22:26:53.851Z,2.40
2023-04-18T22:29:21.126Z,2.90
2023-04-18T22:31:48.264Z,3.13
2023-04-18T22:34:15.883Z,2.83
2023-04-18T22:36:45.421Z,2.97
2023-04-18T22:39:12.881Z,2.88
2023-04-18T22:41:40.051Z,2.55
2023-04-18T22:44:07.179Z,2.25
2023-04-18T22:46:34.958Z,2.80
2023-04-18T22:49:02.253Z,2.90
2023-04-18T22:51:29.317Z,2.60
2023-04-18T22:53:56.777Z,2.22
2023-04-18T22:56:23.971Z,2.60
2023-04-18T22:58:51.240Z,2.67
2023-04-18T23:01:18.641Z,2.50
2023-04-18T23:03:46.498Z,2.50
2023-04-18T23:06:13.752Z,2.58
2023-04-18T23:08:40.856Z,2.50
2023-04-18T23:11:08.003Z,2.45
2023-04-18T23:13:35.150Z,2.38
2023-04-18T23:16:02.335Z,2.58
2023-04-18T23:18:30.196Z,2.35
2023-04-18T23:20:57.335Z,2.80
2023-04-18T23:23:24.499Z,2.30
2023-04-18T23:25:52.264Z,2.40
2023-04-18T23:28:19.388Z,2.55
2023-04-18T23:30:48.066Z,2.70
2023-04-18T23:33:15.319Z,2.40
2023-04-18T23:35:42.403Z,2.20
2023-04-18T23:38:09.807Z,2.30
2023-04-18T23:40:37.076Z,2.35
2023-04-18T23:43:04.157Z,2.30
2023-04-18T23:45:31.326Z,2.70
2023-04-18T23:47:58.521Z,2.33
2023-04-18T23:50:25.683Z,3.10
2023-04-18T23:52:52.770Z,2.88
2023-04-18T23:55:19.899Z,2.85
2023-04-18T23:57:46.988Z,2.75
